Aviation Digital Data Service (ADDS)

Output produced by METARs form (0534 UTC 11 December 2017)
found at http://www.aviationweather.gov/adds/metars/
 
OOSA 110450Z 35014KT CAVOK 22/06 Q1022 WS R25 NOSIG
TAF OOSA 110540Z 1106/1212 35020KT CAVOK
       
OOMS 110450Z 25006KT 7000 NSC 23/06 Q1020 NOSIG
TAF OOMS 110500Z 1106/1212 35012KT 8000 NSC 
     BECMG 1115/1117 22007KT 
     BECMG 1206/1208 33012KT